Recent Observations

This page presents the weather data from the last 72 hours at 30 minute intervals.

Last updated at 4:00:27 am AEST on Fri 23 February 2024.

Last 24 hours
Date/Time(AEST) Temp. ( °C) Dew Point ( °C) Relative Humidity (%) Apparent Temp. ( °C) Wind Direction Wind Speed (kph) Wind Gust (kph) Wind Speed (kts) Wind Gust (kts) MSL Pressure (hPa) Rain since midnight (mm)
23/02 4:00 am 21.9 21.1 96 26.2 CALM 0 0 0 0 1011.6 0.0
23/02 3:30 am 22.0 21.2 96 26.4 WSW 0 2 0 1 1011.8 0.0
23/02 3:00 am 22.2 21.4 95 26.6 WSW 0 2 0 1 1011.8 0.0
23/02 2:30 am 22.3 21.5 95 26.7 CALM 0 0 0 0 1012.0 0.0
23/02 2:00 am 22.5 21.6 94 26.9 CALM 0 0 0 0 1012.2 0.0
23/02 1:30 am 22.7 21.7 94 27.2 CALM 0 0 0 0 1012.3 0.0
23/02 1:00 am 22.9 21.8 94 27.5 CALM 0 0 0 0 1012.2 0.0
23/02 12:30 am 23.2 21.9 93 27.9 WSW 0 2 0 1 1012.5 0.0
23/02 12:00 am 23.5 22.1 92 28.3 CALM 0 0 0 0 1012.8 0.0
22/02 11:30 pm 23.8 22.3 91 28.6 CALM 0 0 0 0 1013.0 0.0
22/02 11:00 pm 24.1 22.3 90 29 CALM 0 0 0 0 1013.3 0.0
22/02 10:30 pm 24.4 22.5 89 29.3 CALM 0 0 0 0 1013.6 0.0
22/02 10:00 pm 24.8 22.7 88 29.9 CALM 0 0 0 0 1013.9 0.0
22/02 9:30 pm 25.2 22.7 86 30.3 CALM 0 0 0 0 1013.9 0.0
22/02 9:00 pm 25.6 22.9 85 30.8 CALM 0 0 0 0 1013.9 0.0
22/02 8:30 pm 25.9 22.9 84 29 NW 3 4 2 2 1013.7 0.0
22/02 8:00 pm 26.2 22.7 81 29.9 NNW 2 10 1 5 1013.6 0.0
22/02 7:30 pm 26.5 22.8 80 28.1 N 5 10 3 5 1013.2 0.0
22/02 7:00 pm 26.9 23.1 80 30.8 N 2 8 1 4 1013.0 0.0
22/02 6:30 pm 27.7 23.6 78 31.1 N 3 8 2 4 1012.6 0.0
22/02 6:00 pm 28.4 23.8 76 30.6 NNE 5 8 3 4 1012.3 0.0
22/02 5:30 pm 29.4 23.3 69 29.1 CALM 8 17 4 9 1012.1 0.0
22/02 5:00 pm 30.6 23.8 67 32.1 NNE 6 17 3 9 1011.4 0.0
22/02 4:30 pm 31.2 23.6 64 32.6 NNE 6 15 3 8 1011.2 0.0
22/02 4:00 pm 31.8 23.9 63 32.6 N 7 14 4 8 1011.2 0.0
22/02 3:30 pm 32.1 24.0 62 32.9 NNW 7 14 4 8 1011.2 0.0
22/02 3:00 pm 32.6 23.7 60 37.6 NE 1 6 1 3 1011.3 0.0
22/02 2:30 pm 33.6 22.6 53 37.3 E 2 8 1 4 1011.6 0.0
22/02 2:00 pm 32.6 22.5 55 35.4 E 3 8 2 4 1011.9 0.0
22/02 1:30 pm 32.6 22.9 57 33.6 W 6 14 3 8 1012.2 0.0
22/02 1:00 pm 32.0 22.7 58 35.7 SW 3 8 2 4 1013.0 0.0
22/02 12:30 pm 32.1 23.3 60 35.4 N 3 8 2 4 1013.0 0.0
22/02 12:00 pm 31.2 24.1 66 36.4 SSE 1 8 1 4 1013.3 0.0
22/02 11:30 am 31.3 23.6 64 36.2 ENE 1 8 1 4 1013.5 0.0
22/02 11:00 am 31.2 23.6 64 34.7 SSE 3 6 2 3 1013.9 0.0
22/02 10:30 am 30.3 23.8 68 33.2 WSW 4 8 2 4 1014.3 0.0
22/02 10:00 am 29.4 23.6 71 32.9 SW 3 8 2 4 1014.6 0.0
22/02 9:30 am 27.8 23.1 76 32.4 SSE 1 4 1 2 1014.8 0.0
22/02 9:00 am 27.3 23.2 78 31.9 S 1 8 1 4 1014.8 0.0
22/02 8:30 am 26.1 23.5 86 29.6 SW 3 10 2 5 1014.6 0.0
22/02 8:00 am 24.7 23.3 92 28 S 3 10 2 5 1014.7 0.0
22/02 7:30 am 23.2 22.8 98 27 CALM 2 8 1 4 1014.7 0.0
22/02 7:00 am 22.2 21.8 98 26.8 CALM 0 0 0 0 1014.6 0.0
22/02 6:30 am 21.2 20.8 98 25.3 CALM 0 0 0 0 1014.2 0.0
22/02 6:00 am 20.7 20.2 97 24.5 CALM 0 0 0 0 1014.0 0.0
22/02 5:30 am 20.8 20.2 97 24.6 CALM 0 0 0 0 1013.5 0.0
22/02 5:00 am 20.8 20.2 97 24.6 CALM 0 0 0 0 1013.3 0.0
22/02 4:30 am 21.0 20.4 97 24.9 CALM 0 0 0 0 1013.2 0.0
24 to 48 hours ago
Date/Time(AEST) Temp. °C Dew Point °C Relative Humidity % Appararent Temp. °C Wind Direction Wind Speed (kph) Wind Gust (kph) Wind Speed (kts) Wind Gust (kts) MSL Pressure (hPa) Rain since midnight (mm)
22/02 4:00 am 21.1 20.5 96 25 CALM 0 0 0 0 1013.0 0.0
22/02 3:30 am 21.2 20.5 96 25.2 CALM 0 0 0 0 1012.9 0.0
22/02 3:00 am 21.3 20.7 96 25.3 CALM 0 0 0 0 1013.0 0.0
22/02 2:30 am 21.4 20.7 96 25.5 CALM 0 0 0 0 1012.8 0.0
22/02 2:00 am 21.7 20.9 96 25.9 CALM 0 0 0 0 1013.0 0.0
22/02 1:30 am 21.8 20.9 95 26 CALM 0 0 0 0 1013.2 0.0
22/02 1:00 am 22.1 21.2 95 26.4 CALM 0 0 0 0 1013.4 0.0
22/02 12:30 am 22.2 21.2 94 26.5 CALM 0 0 0 0 1013.8 0.0
22/02 12:00 am 22.4 21.4 94 26.8 CALM 0 0 0 0 1014.1 0.0
21/02 11:30 pm 22.6 21.5 94 27.1 CALM 0 0 0 0 1014.4 0.0
21/02 11:00 pm 22.8 21.6 93 27.3 CALM 0 0 0 0 1014.8 0.0
21/02 10:30 pm 23.1 21.7 92 27.7 CALM 0 0 0 0 1014.7 0.0
21/02 10:00 pm 23.4 21.8 91 28 CALM 0 0 0 0 1014.8 0.0
21/02 9:30 pm 23.8 21.9 89 28.4 CALM 0 0 0 0 1014.8 0.0
21/02 9:00 pm 24.5 22.2 87 29.3 CALM 0 0 0 0 1014.4 0.0
21/02 8:30 pm 24.9 22.3 85 29.7 CALM 0 0 0 0 1014.1 0.0
21/02 8:00 pm 25.4 22.4 84 30.4 NE 0 2 0 1 1013.6 0.0
21/02 7:30 pm 25.7 22.4 82 30.6 ENE 0 2 0 1 1013.3 0.0
21/02 7:00 pm 26.1 22.3 80 30.3 E 1 8 1 4 1013.1 0.0
21/02 6:30 pm 26.4 22.2 78 29.1 ENE 3 15 2 8 1013.0 0.0
21/02 6:00 pm 27.1 22.4 76 29.3 NE 4 14 2 8 1012.6 0.0
21/02 5:30 pm 27.8 22.2 72 30.5 NE 3 14 2 8 1012.3 0.0
21/02 5:00 pm 28.4 23.0 72 32.2 NE 2 10 1 5 1011.8 0.0
21/02 4:30 pm 29.5 23.3 70 32.2 NE 4 15 2 8 1011.5 0.0
21/02 4:00 pm 30.1 22.6 64 32.3 ENE 4 15 2 8 1011.4 0.0
21/02 3:30 pm 31.1 22.9 62 33.5 NNE 4 12 2 6 1011.2 0.0
21/02 3:00 pm 32.1 22.6 57 34.3 E 4 14 2 8 1011.1 0.0
21/02 2:30 pm 32.6 21.6 52 36.3 ESE 1 8 1 4 1011.6 0.0
21/02 2:00 pm 32.0 21.6 54 34.3 ESE 3 8 2 4 1012.1 0.0
21/02 1:30 pm 32.4 22.7 57 34.7 SSE 4 10 2 5 1012.5 0.0
21/02 1:00 pm 31.8 21.8 55 34.9 WSW 1 6 1 3 1013.0 0.0
21/02 12:30 pm 29.8 21.9 62 33.7 ENE 1 6 1 3 1013.0 0.0
21/02 12:00 pm 30.6 22.2 61 33.3 ESE 3 8 2 4 1013.3 0.0
21/02 11:30 am 30.2 22.5 63 33 SSE 3 12 2 6 1013.9 0.0
21/02 11:00 am 30.3 22.9 65 33.4 W 3 8 2 4 1014.2 0.0
21/02 10:30 am 29.3 22.1 65 31.9 SSW 3 10 2 5 1014.6 0.0
21/02 10:00 am 28.3 22.3 70 31.8 SSE 2 6 1 3 1014.8 0.0
21/02 9:30 am 27.1 22.1 74 29 SSE 4 8 2 4 1014.9 0.0
21/02 9:00 am 25.9 21.9 79 29.2 SSE 2 6 1 3 1014.8 0.0
21/02 8:30 am 24.8 21.4 81 27 S 3 8 2 4 1015.0 0.0
21/02 8:00 am 23.8 21.3 86 25.3 S 4 10 2 5 1015.1 0.0
21/02 7:30 am 22.2 21.4 96 26 SSE 1 6 1 3 1015.0 0.0
21/02 7:00 am 21.0 20.6 98 25 SSW 0 2 0 1 1014.6 0.0
21/02 6:30 am 20.3 19.8 97 23.9 CALM 0 0 0 0 1014.4 0.0
21/02 6:00 am 19.8 19.3 97 23.2 CALM 0 0 0 0 1014.1 0.0
21/02 5:30 am 19.8 19.3 97 23.2 CALM 0 0 0 0 1013.7 0.0
21/02 5:00 am 20.0 19.4 96 23.4 SSW 0 2 0 1 1013.6 0.0
21/02 4:30 am 20.2 19.6 96 23.7 CALM 0 0 0 0 1013.3 0.0
48 to 72 hours ago
Date/Time(AEST) Temp. °C Dew Point °C Relative Humidity % Appararent Temp. °C Wind Direction Wind Speed (kph) Wind Gust (kph) Wind Speed (kts) Wind Gust (kts) MSL Pressure (hPa) Rain since midnight (mm)
21/02 4:00 am 20.3 19.7 96 23.8 CALM 0 0 0 0 1013.3 0.0
21/02 3:30 am 20.6 19.9 96 24.3 CALM 0 0 0 0 1013.2 0.0
21/02 3:00 am 20.7 19.9 96 24.4 CALM 0 0 0 0 1013.2 0.0
21/02 2:30 am 20.9 20.2 96 24.7 CALM 0 0 0 0 1013.3 0.0
21/02 2:00 am 21.0 20.2 95 24.8 CALM 0 0 0 0 1013.7 0.0
21/02 1:30 am 21.2 20.2 94 25 CALM 0 0 0 0 1013.5 0.0
21/02 1:00 am 21.3 20.3 94 25.1 CALM 0 0 0 0 1013.7 0.0
21/02 12:30 am 21.6 20.5 94 25.6 CALM 0 0 0 0 1014.0 0.0
21/02 12:00 am 21.9 20.8 93 25.9 CALM 0 0 0 0 1014.3 0.0
20/02 11:30 pm 22.2 20.9 92 26.3 CALM 0 0 0 0 1014.6 0.2
20/02 11:00 pm 22.4 20.9 91 26.5 CALM 0 0 0 0 1014.6 0.2
20/02 10:30 pm 22.8 21.2 90 27 CALM 0 0 0 0 1014.6 0.2
20/02 10:00 pm 23.2 21.2 88 27.4 ESE 0 2 0 1 1014.6 0.2
20/02 9:30 pm 23.8 21.6 87 28.2 CALM 0 0 0 0 1014.8 0.2
20/02 9:00 pm 24.1 21.5 86 28.6 CALM 0 0 0 0 1014.6 0.2
20/02 8:30 pm 24.5 21.3 82 28.8 CALM 0 0 0 0 1014.4 0.2
20/02 8:00 pm 24.8 21.4 82 29.2 E 0 4 0 2 1014.0 0.2
20/02 7:30 pm 24.9 21.6 82 29.4 ENE 0 2 0 1 1013.6 0.2
20/02 7:00 pm 25.2 21.4 80 28.9 NNE 1 6 1 3 1013.4 0.2
20/02 6:30 pm 25.7 21.4 77 29.4 NE 1 6 1 3 1013.0 0.2
20/02 6:00 pm 26.3 21.7 76 29.5 ENE 2 8 1 4 1013.0 0.2
20/02 5:30 pm 26.8 22.1 75 29.4 ENE 3 12 2 6 1012.8 0.2
20/02 5:00 pm 27.4 22.4 74 28.8 ENE 5 12 3 6 1012.5 0.2
20/02 4:30 pm 27.9 22.3 72 26.5 E 9 17 5 9 1012.2 0.2
20/02 4:00 pm 28.7 22.6 70 31 E 4 14 2 8 1012.0 0.2
20/02 3:30 pm 29.8 22.7 66 32.1 NNE 4 14 2 8 1012.1 0.2
20/02 3:00 pm 29.8 22.1 63 31 ENE 5 10 3 5 1012.0 0.2
20/02 2:30 pm 31.7 21.8 56 34.2 NE 3 6 2 3 1012.3 0.2
20/02 2:00 pm 32.1 22.7 58 34.4 W 4 14 2 8 1012.4 0.2
20/02 1:30 pm 30.7 21.7 59 33.2 S 3 10 2 5 1012.8 0.2
20/02 1:00 pm 30.9 22.6 61 32.4 SW 5 14 3 8 1013.3 0.2
20/02 12:30 pm 29.9 21.7 62 31 SE 5 14 3 8 1013.3 0.2
20/02 12:00 pm 29.4 20.6 59 30.6 SSE 4 10 2 5 1013.9 0.2
20/02 11:30 am 29.4 22.3 66 31.5 S 4 12 2 6 1014.0 0.2
20/02 11:00 am 28.7 21.9 67 31.3 S 3 10 2 5 1014.3 0.2
20/02 10:30 am 28.0 21.8 69 30.5 SE 3 8 2 4 1014.5 0.2
20/02 10:00 am 27.5 22.2 73 30.2 S 3 10 2 5 1014.7 0.2
20/02 9:30 am 25.7 21.6 78 25.3 SSW 7 14 4 8 1014.7 0.2
20/02 9:00 am 24.4 21.1 82 25.1 S 5 10 3 5 1014.8 0.2
20/02 8:30 am 23.3 21.0 87 24.7 SSE 4 10 2 5 1014.9 0.2
20/02 8:00 am 21.9 20.5 92 21.7 S 6 15 3 8 1014.9 0.2
20/02 7:30 am 21.1 20.6 97 23.7 S 2 10 1 5 1015.0 0.2
20/02 7:00 am 20.3 20.0 98 22.6 S 2 6 1 3 1014.8 0.2
20/02 6:30 am 19.9 19.6 98 22.7 SSE 1 4 1 2 1014.4 0.2
20/02 6:00 am 19.7 19.4 98 23.1 CALM 0 0 0 0 1014.1 0.2
20/02 5:30 am 19.3 18.9 98 22.5 CALM 0 0 0 0 1014.0 0.2
20/02 5:00 am 19.4 19.1 98 22.7 CALM 0 0 0 0 1013.9 0.2
20/02 4:30 am 19.7 19.3 98 23.1 CALM 0 0 0 0 1013.7 0.2